Time;durP1;ratioP1;P1;durP2;ratioP2;P2;SDS_P1;SDS_P2;PMS_P1;PMS_P2;Temp;Humidity;BMP_temperature;BMP_pressure;BME280_temperature;BME280_humidity;BME280_pressure;Samples;Min_cycle;Max_cycle;Signal;HPM_P1;HPM_P2
2023/07/23 00:01:27;;;;;;;3.30;2.20;;;;;;;18.10;86.03;100230.04;107944;1256;73661;-88
2023/07/23 00:03:54;;;;;;;2.90;2.30;;;;;;;18.06;86.26;100230.48;107921;1256;61840;-87
2023/07/23 00:06:21;;;;;;;3.30;2.00;;;;;;;18.02;86.42;100230.16;107976;1256;61396;-87
2023/07/23 00:08:48;;;;;;;3.00;1.70;;;;;;;18.00;86.70;100234.13;107936;1256;74593;-89
2023/07/23 00:11:15;;;;;;;2.40;1.70;;;;;;;17.98;86.94;100236.82;107943;1257;74033;-88
2023/07/23 00:13:42;;;;;;;2.30;1.80;;;;;;;17.94;87.20;100231.09;107987;1259;72859;-89
2023/07/23 00:16:09;;;;;;;3.40;2.00;;;;;;;17.92;87.37;100228.89;107998;1256;62021;-88
2023/07/23 00:18:36;;;;;;;3.30;1.80;;;;;;;17.91;87.63;100234.73;107904;1256;61385;-85
2023/07/23 00:21:04;;;;;;;3.30;1.70;;;;;;;17.89;87.70;100229.77;108004;1256;74660;-88
2023/07/23 00:23:30;;;;;;;3.90;1.80;;;;;;;17.87;87.73;100227.54;107966;1256;74403;-86
2023/07/23 00:25:57;;;;;;;3.60;1.80;;;;;;;17.82;87.66;100231.33;107967;1256;73778;-86
2023/07/23 00:28:24;;;;;;;1.80;1.60;;;;;;;17.76;87.88;100236.14;107986;1257;61146;-86
2023/07/23 00:30:51;;;;;;;2.50;1.70;;;;;;;17.71;87.90;100238.62;107715;1256;60124;-89
2023/07/23 00:33:23;;;;;;;2.10;1.50;;;;;;;17.69;88.09;100238.79;107891;1257;74718;-89
2023/07/23 00:35:50;;;;;;;;;;;;;;;17.66;88.21;100239.95;107942;1256;72824;-88
2023/07/23 00:38:16;;;;;;;2.60;1.60;;;;;;;17.62;88.27;100239.21;107958;1256;70887;-88
2023/07/23 00:40:43;;;;;;;2.90;1.50;;;;;;;17.58;88.45;100241.67;107847;1256;61998;-89
2023/07/23 00:43:12;;;;;;;1.70;1.40;;;;;;;17.53;88.46;100241.67;107869;1257;61321;-86
2023/07/23 00:45:39;;;;;;;1.60;1.40;;;;;;;17.52;88.55;100240.28;107915;1256;74732;-91
2023/07/23 00:48:06;;;;;;;3.70;1.30;;;;;;;17.49;88.54;100240.02;107902;1256;72637;-90
2023/07/23 00:50:33;;;;;;;1.70;1.40;;;;;;;17.48;88.57;100240.27;107958;1257;72703;-90
2023/07/23 00:52:59;;;;;;;5.30;1.60;;;;;;;17.47;88.69;100249.70;107909;1257;61205;-90
2023/07/23 00:55:26;;;;;;;3.80;1.50;;;;;;;17.46;88.79;100253.77;107728;1256;61130;-86
2023/07/23 00:57:53;;;;;;;2.10;1.30;;;;;;;17.44;88.88;100261.93;107946;1256;73837;-87
2023/07/23 01:00:20;;;;;;;3.70;1.20;;;;;;;17.41;88.81;100262.91;107684;1256;72766;-87
2023/07/23 01:02:50;;;;;;;1.90;1.20;;;;;;;17.40;88.72;100261.86;107929;1257;72504;-88
2023/07/23 01:05:17;;;;;;;1.30;1.10;;;;;;;17.38;88.49;100264.39;107917;1257;61324;-88
2023/07/23 01:07:44;;;;;;;1.80;1.00;;;;;;;17.36;88.26;100259.41;107946;1256;61250;-89
2023/07/23 01:10:11;;;;;;;1.70;1.20;;;;;;;17.35;88.13;100259.67;107698;1257;74535;-85
2023/07/23 01:12:39;;;;;;;1.50;1.20;;;;;;;17.34;88.06;100263.52;107985;1256;72736;-89
2023/07/23 01:15:06;;;;;;;2.50;1.10;;;;;;;17.33;88.07;100262.86;107685;1258;72462;-88
2023/07/23 01:17:35;;;;;;;1.80;1.30;;;;;;;17.31;88.19;100261.34;107692;1256;61058;-88
2023/07/23 01:20:06;;;;;;;1.40;0.90;;;;;;;17.29;88.32;100264.02;107931;1256;61301;-89
2023/07/23 01:22:34;;;;;;;1.90;1.20;;;;;;;17.29;88.36;100269.98;107800;1256;74739;-87
2023/07/23 01:25:01;;;;;;;1.50;1.20;;;;;;;17.26;88.22;100267.07;107927;1256;72520;-86
2023/07/23 01:27:28;;;;;;;1.50;1.20;;;;;;;17.25;88.27;100268.66;107841;1256;71761;-89
2023/07/23 01:29:55;;;;;;;3.00;1.50;;;;;;;17.26;88.36;100269.62;107963;1256;61125;-89
2023/07/23 01:32:21;;;;;;;1.20;1.00;;;;;;;17.26;88.35;100276.51;107939;1257;61121;-87
2023/07/23 01:34:48;;;;;;;1.80;1.10;;;;;;;17.29;88.59;100282.66;107968;1256;74689;-88
2023/07/23 01:37:15;;;;;;;2.00;1.10;;;;;;;17.32;88.60;100283.73;107717;1257;72937;-89
2023/07/23 01:39:42;;;;;;;1.70;1.00;;;;;;;17.36;88.71;100279.99;107899;1260;72837;-87
2023/07/23 01:42:10;;;;;;;1.60;1.10;;;;;;;17.39;88.64;100277.75;107981;1257;62015;-88
2023/07/23 01:44:37;;;;;;;1.60;1.10;;;;;;;17.42;88.38;100279.52;107577;1256;61201;-87
2023/07/23 01:47:04;;;;;;;1.30;1.10;;;;;;;17.45;87.86;100281.66;107701;1257;74730;-86
2023/07/23 01:49:32;;;;;;;1.30;1.10;;;;;;;17.48;87.55;100278.98;107905;1257;72712;-86
2023/07/23 01:51:59;;;;;;;2.90;1.30;;;;;;;17.53;87.40;100281.99;107744;1256;74024;-86
2023/07/23 01:54:25;;;;;;;1.50;1.10;;;;;;;17.55;87.26;100282.90;107797;1256;61304;-87
2023/07/23 01:56:53;;;;;;;2.40;1.20;;;;;;;17.57;86.77;100286.79;107921;1257;61119;-86
2023/07/23 01:59:19;;;;;;;2.60;1.10;;;;;;;17.59;86.47;100294.03;107836;1257;74471;-89
2023/07/23 02:01:46;;;;;;;1.90;1.30;;;;;;;17.61;86.29;100291.41;107865;1256;72705;-89
2023/07/23 02:04:13;;;;;;;2.10;1.50;;;;;;;17.63;86.13;100300.22;107893;1256;72369;-87
2023/07/23 02:06:40;;;;;;;2.40;1.20;;;;;;;17.64;85.94;100294.83;107927;1259;61283;-88
2023/07/23 02:09:07;;;;;;;3.50;1.50;;;;;;;17.66;85.87;100292.35;108017;1256;61488;-89
2023/07/23 02:11:34;;;;;;;2.10;1.60;;;;;;;17.67;85.65;100291.31;107933;1259;73551;-88
2023/07/23 02:14:01;;;;;;;1.90;1.50;;;;;;;17.68;85.52;100291.00;107854;1262;71333;-88
2023/07/23 02:16:28;;;;;;;2.80;1.50;;;;;;;17.70;85.38;100287.48;107826;1256;72494;-86
2023/07/23 02:18:55;;;;;;;2.30;1.40;;;;;;;17.73;85.11;100288.60;108005;1260;61910;-87
2023/07/23 02:21:22;;;;;;;2.50;1.80;;;;;;;17.74;85.09;100294.23;107991;1257;61203;-88
2023/07/23 02:23:50;;;;;;;2.60;1.50;;;;;;;17.76;84.91;100296.95;107870;1262;74596;-87
2023/07/23 02:26:17;;;;;;;2.10;1.60;;;;;;;17.77;84.67;100292.69;107932;1257;71714;-87
2023/07/23 02:28:44;;;;;;;3.30;1.80;;;;;;;17.75;84.55;100293.05;107897;1261;72819;-87
2023/07/23 02:31:16;;;;;;;3.10;1.80;;;;;;;17.76;84.51;100293.23;108018;1257;61758;-88
2023/07/23 02:33:46;;;;;;;2.80;1.70;;;;;;;17.75;84.47;100296.69;108033;1256;61147;-86
2023/07/23 02:36:13;;;;;;;3.60;2.00;;;;;;;17.78;84.37;100299.25;107982;1257;74687;-87
2023/07/23 02:38:40;;;;;;;2.20;1.40;;;;;;;17.80;84.30;100299.08;107854;1257;72680;-87
2023/07/23 02:41:07;;;;;;;2.70;1.60;;;;;;;17.82;84.26;100301.27;107727;1257;72685;-87
2023/07/23 02:43:34;;;;;;;2.40;1.70;;;;;;;17.82;83.99;100301.35;107936;1256;61791;-87
2023/07/23 02:46:01;;;;;;;3.20;1.70;;;;;;;17.82;83.87;100298.27;107902;1257;61100;-86
2023/07/23 02:48:28;;;;;;;2.90;1.50;;;;;;;17.83;83.76;100301.86;107948;1257;74707;-87
2023/07/23 02:50:55;;;;;;;2.90;1.70;;;;;;;17.83;83.63;100303.23;107956;1256;72702;-87
2023/07/23 02:53:26;;;;;;;3.20;1.80;;;;;;;17.81;83.47;100314.08;107674;1259;71278;-86
2023/07/23 02:55:53;;;;;;;4.60;1.60;;;;;;;17.80;83.32;100313.29;107721;1256;61704;-87
2023/07/23 02:58:20;;;;;;;2.80;1.70;;;;;;;17.78;83.49;100319.61;107935;1257;61456;-85
2023/07/23 03:00:47;;;;;;;2.20;1.60;;;;;;;17.78;83.40;100318.77;107954;1257;74904;-86
2023/07/23 03:03:14;;;;;;;3.70;1.80;;;;;;;17.77;83.39;100326.23;107805;1256;72603;-85
2023/07/23 03:05:42;;;;;;;2.60;1.60;;;;;;;17.78;83.46;100327.02;107816;1256;72509;-88
2023/07/23 03:08:09;;;;;;;2.70;1.60;;;;;;;17.80;83.56;100328.97;107930;1257;61120;-85
2023/07/23 03:10:36;;;;;;;1.90;1.50;;;;;;;17.81;83.53;100335.37;107907;1257;61076;-86
2023/07/23 03:13:03;;;;;;;2.60;1.70;;;;;;;17.82;83.47;100341.88;107918;1256;74437;-86
2023/07/23 03:15:30;;;;;;;2.90;1.80;;;;;;;17.81;83.36;100344.55;107953;1257;73229;-87
2023/07/23 03:17:57;;;;;;;3.30;1.80;;;;;;;17.82;83.35;100346.14;107971;1258;72396;-86
2023/07/23 03:20:24;;;;;;;4.40;1.90;;;;;;;17.84;83.34;100354.77;108020;1257;62495;-86
2023/07/23 03:22:50;;;;;;;2.00;1.60;;;;;;;17.85;83.29;100356.67;107981;1256;61100;-87
2023/07/23 03:25:18;;;;;;;2.90;1.60;;;;;;;17.87;83.31;100361.27;108023;1256;74706;-87
2023/07/23 03:27:44;;;;;;;2.90;1.80;;;;;;;17.93;83.32;100359.00;107938;1256;72856;-86
2023/07/23 03:30:12;;;;;;;2.90;1.80;;;;;;;17.98;83.05;100360.96;107779;1257;72659;-89
2023/07/23 03:32:39;;;;;;;3.00;1.90;;;;;;;18.01;82.81;100358.57;108492;1257;62256;-85
2023/07/23 03:35:06;;;;;;;2.50;1.70;;;;;;;18.02;82.70;100362.20;108583;1257;59353;-84
2023/07/23 03:37:33;;;;;;;3.60;1.90;;;;;;;18.07;82.72;100367.56;108620;1257;73387;-84
2023/07/23 03:40:02;;;;;;;4.30;2.00;;;;;;;18.09;82.67;100368.89;108599;1257;72826;-86
2023/07/23 03:42:30;;;;;;;2.70;1.80;;;;;;;18.13;82.57;100368.51;108299;1261;71170;-88
2023/07/23 03:44:57;;;;;;;2.40;2.00;;;;;;;18.19;82.45;100368.45;107718;1262;62250;-85
2023/07/23 03:47:24;;;;;;;2.90;1.70;;;;;;;18.23;82.39;100371.97;107970;1259;61219;-87
2023/07/23 03:49:51;;;;;;;3.70;1.90;;;;;;;18.24;82.03;100370.64;107969;1259;74594;-87
2023/07/23 03:52:18;;;;;;;3.30;1.90;;;;;;;18.26;82.00;100372.73;107982;1257;72860;-88
2023/07/23 03:54:45;;;;;;;3.20;1.90;;;;;;;18.28;81.91;100374.09;108025;1257;73625;-86
2023/07/23 03:57:12;;;;;;;4.10;2.30;;;;;;;18.29;81.98;100368.55;107994;1257;61984;-85
2023/07/23 03:59:43;;;;;;;3.50;2.20;;;;;;;18.31;82.00;100367.58;108017;1259;61193;-86
2023/07/23 04:02:10;;;;;;;3.30;1.90;;;;;;;18.34;81.89;100369.80;107843;1257;74691;-87
2023/07/23 04:04:37;;;;;;;3.50;2.00;;;;;;;18.36;81.92;100376.15;107849;1257;72515;-85
2023/07/23 04:07:05;;;;;;;3.60;2.40;;;;;;;18.40;81.96;100373.55;108044;1257;72643;-86
2023/07/23 04:09:32;;;;;;;5.00;2.30;;;;;;;18.42;82.11;100378.61;107772;1258;63439;-85
2023/07/23 04:11:59;;;;;;;2.70;1.90;;;;;;;18.45;82.08;100379.69;108023;1261;61282;-88
2023/07/23 04:14:25;;;;;;;3.80;2.50;;;;;;;18.46;81.79;100377.44;107945;1257;73120;-87
2023/07/23 04:16:55;;;;;;;3.20;2.10;;;;;;;18.46;81.71;100377.43;108011;1258;72763;-88
2023/07/23 04:19:22;;;;;;;2.90;2.20;;;;;;;18.51;82.00;100376.20;107827;1257;70214;-88
2023/07/23 04:21:49;;;;;;;3.10;2.40;;;;;;;18.60;82.01;100376.92;107996;1258;61914;-88
2023/07/23 04:24:16;;;;;;;3.70;2.80;;;;;;;18.65;81.66;100381.64;107980;1256;61096;-88
2023/07/23 04:26:43;;;;;;;4.70;3.60;;;;;;;18.70;81.55;100383.48;107963;1261;74717;-87
2023/07/23 04:29:10;;;;;;;6.20;3.90;;;;;;;18.68;81.12;100379.06;107740;1257;72922;-87
2023/07/23 04:31:38;;;;;;;4.70;3.70;;;;;;;18.65;80.97;100384.50;107969;1261;71469;-89
2023/07/23 04:34:05;;;;;;;4.70;3.30;;;;;;;18.66;81.10;100381.13;107952;1258;61764;-87
2023/07/23 04:36:32;;;;;;;4.10;3.00;;;;;;;18.68;81.15;100376.20;107932;1257;61139;-89
2023/07/23 04:39:00;;;;;;;3.70;3.00;;;;;;;18.72;81.23;100375.19;108049;1260;74659;-89
2023/07/23 04:41:28;;;;;;;4.60;3.90;;;;;;;18.75;81.27;100377.97;107986;1257;72540;-88
2023/07/23 04:43:55;;;;;;;4.10;3.20;;;;;;;18.77;81.25;100377.36;107998;1259;71539;-86
2023/07/23 04:46:24;;;;;;;4.90;3.50;;;;;;;18.80;81.03;100370.46;108003;1257;62546;-87
2023/07/23 04:48:51;;;;;;;4.40;3.20;;;;;;;18.84;81.02;100373.65;107954;1257;61150;-87
2023/07/23 04:51:18;;;;;;;4.70;2.90;;;;;;;18.87;80.80;100369.28;108002;1257;74852;-88
2023/07/23 04:53:45;;;;;;;4.10;3.00;;;;;;;18.90;80.74;100370.91;107964;1259;72537;-88
2023/07/23 04:56:12;;;;;;;4.50;2.80;;;;;;;18.91;80.46;100373.98;107921;1257;71151;-88
2023/07/23 04:58:38;;;;;;;3.60;2.90;;;;;;;18.90;80.61;100377.48;108023;1256;62138;-88
2023/07/23 05:01:07;;;;;;;5.70;3.00;;;;;;;18.89;80.56;100377.03;107996;1257;61173;-88
2023/07/23 05:03:34;;;;;;;3.60;2.80;;;;;;;18.88;80.65;100378.30;107974;1256;74639;-88
2023/07/23 05:06:02;;;;;;;3.60;2.80;;;;;;;18.92;80.90;100375.95;108007;1258;71272;-89
2023/07/23 05:08:29;;;;;;;5.20;2.90;;;;;;;18.94;80.47;100374.64;108040;1260;71619;-86
2023/07/23 05:11:00;;;;;;;4.00;2.90;;;;;;;18.93;80.33;100378.95;108029;1256;62070;-86
2023/07/23 05:13:27;;;;;;;5.20;3.10;;;;;;;18.97;80.51;100374.70;108027;1257;61083;-86
2023/07/23 05:15:54;;;;;;;4.70;3.70;;;;;;;19.02;80.63;100380.96;107972;1258;73571;-85
2023/07/23 05:18:23;;;;;;;4.40;3.90;;;;;;;19.08;80.11;100376.18;107883;1258;72713;-87
2023/07/23 05:20:50;;;;;;;4.80;3.70;;;;;;;19.14;80.10;100367.90;107991;1255;72509;-86
2023/07/23 05:23:17;;;;;;;5.60;3.80;;;;;;;19.27;80.09;100373.78;107901;1257;61752;-87
2023/07/23 05:25:45;;;;;;;4.30;3.10;;;;;;;19.43;79.98;100366.22;107995;1257;61109;-86
2023/07/23 05:28:12;;;;;;;4.40;3.10;;;;;;;19.58;79.24;100365.78;107924;1257;74487;-85
2023/07/23 05:30:40;;;;;;;4.10;3.20;;;;;;;19.71;78.76;100366.90;107921;1257;72925;-86
2023/07/23 05:33:06;;;;;;;5.40;3.10;;;;;;;19.91;78.79;100361.55;108061;1257;72701;-87
2023/07/23 05:35:59;;;;;;;5.70;2.90;;;;;;;20.19;78.62;100366.77;108002;1257;63170;-85
2023/07/23 05:38:27;;;;;;;3.80;2.40;;;;;;;20.40;76.67;100361.88;107575;1260;59249;-86
2023/07/23 05:40:57;;;;;;;4.10;2.30;;;;;;;20.44;75.09;100355.19;107685;1260;74576;-86
2023/07/23 05:43:24;;;;;;;4.10;2.40;;;;;;;20.45;73.90;100348.19;107782;1260;73047;-87
2023/07/23 05:45:57;;;;;;;4.10;2.50;;;;;;;20.46;73.28;100344.20;107588;1261;72597;-87
2023/07/23 05:48:24;;;;;;;3.50;2.70;;;;;;;20.47;73.24;100349.77;107633;1260;61731;-87
2023/07/23 05:50:51;;;;;;;4.30;3.30;;;;;;;20.52;72.81;100347.50;107640;1259;61123;-87
2023/07/23 05:53:18;;;;;;;4.10;2.90;;;;;;;20.58;72.20;100344.63;107643;1260;73649;-88
2023/07/23 05:55:45;;;;;;;3.90;3.20;;;;;;;20.61;71.81;100343.71;107515;1260;72607;-85
2023/07/23 05:58:12;;;;;;;3.90;3.50;;;;;;;20.66;71.27;100349.11;107605;1260;73857;-84
2023/07/23 06:00:39;;;;;;;3.90;3.00;;;;;;;20.75;71.21;100344.20;107560;1260;61298;-84
2023/07/23 06:03:05;;;;;;;4.50;3.50;;;;;;;20.78;69.53;100349.48;107546;1260;61248;-83
2023/07/23 06:05:34;;;;;;;4.50;3.50;;;;;;;20.72;69.42;100354.78;107810;1260;73403;-84
2023/07/23 06:08:01;;;;;;;4.70;3.60;;;;;;;20.84;69.70;100352.18;107629;1260;72707;-85
2023/07/23 06:10:27;;;;;;;4.50;3.10;;;;;;;21.04;69.35;100352.76;107945;1260;71264;-87
2023/07/23 06:12:54;;;;;;;4.40;3.80;;;;;;;21.22;68.86;100356.46;107956;1258;59302;-84
2023/07/23 06:15:22;;;;;;;4.30;3.30;;;;;;;21.34;68.11;100364.17;107956;1257;61117;-85
2023/07/23 06:17:50;;;;;;;3.50;2.90;;;;;;;21.43;67.54;100364.42;107875;1257;74493;-87
2023/07/23 06:20:25;;;;;;;3.30;2.90;;;;;;;21.45;66.60;100361.48;108013;1257;72856;-88
2023/07/23 06:22:53;;;;;;;4.30;3.10;;;;;;;21.38;66.47;100359.59;107856;1258;72576;-87
2023/07/23 06:25:20;;;;;;;3.50;2.70;;;;;;;21.45;66.98;100360.30;108011;1257;61940;-86
2023/07/23 06:27:47;;;;;;;5.10;3.10;;;;;;;21.48;66.45;100357.23;108034;1257;61147;-86
2023/07/23 06:30:14;;;;;;;4.20;3.10;;;;;;;21.55;66.68;100362.66;108037;1257;75901;-85
2023/07/23 06:32:41;;;;;;;4.10;3.10;;;;;;;21.62;66.31;100360.36;107933;1257;71124;-84
2023/07/23 06:35:11;;;;;;;5.80;3.50;;;;;;;21.73;66.08;100355.67;107919;1257;72598;-87
2023/07/23 06:37:40;;;;;;;4.90;3.10;;;;;;;21.87;65.95;100352.27;107998;1258;61080;-85
2023/07/23 06:40:08;;;;;;;4.20;3.20;;;;;;;22.01;65.26;100352.20;107998;1257;61138;-88
2023/07/23 06:42:37;;;;;;;3.90;3.00;;;;;;;22.16;64.42;100356.04;108044;1257;74728;-86
2023/07/23 06:45:04;;;;;;;3.60;3.00;;;;;;;22.25;63.91;100356.02;107959;1257;73278;-85
2023/07/23 06:47:32;;;;;;;4.70;3.00;;;;;;;22.36;63.60;100357.00;107938;1257;72608;-85
2023/07/23 06:49:59;;;;;;;3.90;3.20;;;;;;;22.84;62.57;100352.30;107970;1257;61933;-87
2023/07/23 06:52:28;;;;;;;4.70;3.20;;;;;;;23.07;61.73;100354.16;108080;1256;61141;-86
2023/07/23 06:54:55;;;;;;;4.50;3.00;;;;;;;23.17;61.27;100357.45;108009;1260;76289;-86
2023/07/23 06:57:24;;;;;;;4.70;3.20;;;;;;;23.22;60.91;100351.73;108015;1256;72663;-84
2023/07/23 06:59:52;;;;;;;4.40;3.00;;;;;;;23.27;60.46;100347.28;108038;1258;73885;-86
2023/07/23 07:02:19;;;;;;;3.70;2.80;;;;;;;23.41;59.91;100343.87;108011;1257;62019;-86
2023/07/23 07:04:51;;;;;;;3.30;2.40;;;;;;;23.48;59.19;100341.01;108020;1257;61206;-86
2023/07/23 07:07:18;;;;;;;4.30;2.90;;;;;;;23.40;59.64;100345.71;108025;1257;74519;-86
2023/07/23 07:09:50;;;;;;;4.00;2.90;;;;;;;23.42;59.55;100347.63;108034;1260;72873;-86
2023/07/23 07:12:17;;;;;;;4.50;3.00;;;;;;;23.42;59.52;100348.41;107998;1257;72707;-87
2023/07/23 07:14:45;;;;;;;4.60;3.40;;;;;;;23.47;59.34;100352.03;108021;1257;61422;-86
2023/07/23 07:17:11;;;;;;;4.70;2.90;;;;;;;23.54;59.40;100350.36;108085;1257;61339;-85
2023/07/23 07:19:47;;;;;;;4.70;3.30;;;;;;;23.58;59.35;100347.88;108045;1257;74447;-85
2023/07/23 07:22:15;;;;;;;4.80;3.00;;;;;;;23.22;59.47;100349.97;107912;1257;72827;-87
2023/07/23 07:24:43;;;;;;;4.40;2.80;;;;;;;22.89;60.52;100351.66;108030;1258;72717;-85
2023/07/23 07:27:20;;;;;;;4.30;3.30;;;;;;;22.82;60.49;100355.66;108105;1257;61192;-81
2023/07/23 07:29:48;;;;;;;4.10;3.20;;;;;;;22.89;61.11;100353.11;108062;1257;61225;-85
2023/07/23 07:32:14;;;;;;;4.60;3.30;;;;;;;22.96;60.84;100356.48;107968;1256;74545;-86
2023/07/23 07:34:41;;;;;;;5.50;3.60;;;;;;;23.02;60.72;100358.05;107972;1257;71226;-84
2023/07/23 07:37:09;;;;;;;5.60;3.60;;;;;;;23.11;60.76;100357.76;107954;1256;71468;-85
2023/07/23 07:39:40;;;;;;;3.60;2.90;;;;;;;23.18;60.70;100354.45;107884;1257;61336;-84
2023/07/23 07:42:08;;;;;;;3.70;3.00;;;;;;;23.24;60.49;100358.20;107943;1257;61135;-85
2023/07/23 07:44:35;;;;;;;3.30;2.90;;;;;;;23.23;59.63;100361.04;107982;1260;74740;-86
2023/07/23 07:47:03;;;;;;;3.70;3.30;;;;;;;23.10;59.30;100361.45;108002;1256;73763;-85
2023/07/23 07:49:30;;;;;;;3.90;2.90;;;;;;;23.10;59.96;100364.59;107807;1257;72708;-84
2023/07/23 07:51:57;;;;;;;6.30;3.40;;;;;;;23.16;60.04;100366.71;108026;1257;61220;-85
2023/07/23 07:54:24;;;;;;;3.70;2.70;;;;;;;23.26;59.79;100362.69;108046;1259;61053;-85
2023/07/23 07:56:52;;;;;;;3.90;3.20;;;;;;;23.43;59.04;100367.14;107950;1257;74332;-84
2023/07/23 07:59:19;;;;;;;4.30;3.10;;;;;;;23.59;58.37;100364.75;107952;1257;72852;-85
2023/07/23 08:01:48;;;;;;;4.10;3.30;;;;;;;23.71;58.03;100362.67;107939;1259;72770;-85
2023/07/23 08:04:16;;;;;;;4.40;3.00;;;;;;;23.82;57.92;100362.10;108002;1257;61663;-86
2023/07/23 08:06:44;;;;;;;5.00;3.50;;;;;;;23.94;58.08;100363.11;107978;1257;60445;-84
2023/07/23 08:09:13;;;;;;;4.80;3.50;;;;;;;24.07;57.39;100369.34;107861;1258;74534;-85
2023/07/23 08:11:40;;;;;;;4.30;3.30;;;;;;;24.14;56.55;100371.52;107800;1256;72582;-87
2023/07/23 08:14:08;;;;;;;3.80;3.00;;;;;;;24.21;56.31;100372.33;107758;1257;72783;-85
2023/07/23 08:16:35;;;;;;;4.10;3.30;;;;;;;24.29;55.75;100374.38;107561;1257;62834;-87
2023/07/23 08:19:02;;;;;;;4.00;3.60;;;;;;;24.27;54.92;100373.00;107825;1257;60429;-86
2023/07/23 08:21:29;;;;;;;4.70;3.50;;;;;;;24.23;55.03;100373.78;107849;1257;74761;-84
2023/07/23 08:23:57;;;;;;;4.20;3.40;;;;;;;24.30;55.20;100371.77;107955;1256;72626;-86
2023/07/23 08:26:24;;;;;;;3.90;3.20;;;;;;;24.42;54.85;100371.51;108020;1257;72765;-87
2023/07/23 08:28:53;;;;;;;5.40;3.50;;;;;;;24.52;54.24;100371.59;107911;1257;61624;-86
2023/07/23 08:31:20;;;;;;;3.90;3.30;;;;;;;24.62;54.19;100373.45;107922;1256;61800;-87
2023/07/23 08:33:48;;;;;;;4.10;3.40;;;;;;;24.67;53.11;100378.91;108045;1258;74578;-87
2023/07/23 08:36:16;;;;;;;4.10;3.40;;;;;;;24.59;53.32;100381.96;107936;1260;71622;-86
2023/07/23 08:38:43;;;;;;;4.90;3.40;;;;;;;24.60;53.66;100381.22;107913;1256;71505;-87
2023/07/23 08:41:42;;;;;;;4.20;3.60;;;;;;;24.72;53.44;100376.23;107957;1256;61795;-86
2023/07/23 08:44:11;;;;;;;3.80;3.10;;;;;;;24.85;53.14;100378.55;107908;1256;60093;-86
2023/07/23 08:46:44;;;;;;;4.40;3.50;;;;;;;24.83;52.48;100377.19;107962;1257;75093;-85
2023/07/23 08:49:11;;;;;;;4.10;3.20;;;;;;;24.70;52.41;100371.04;108036;1257;72743;-85
2023/07/23 08:51:45;;;;;;;4.10;3.20;;;;;;;24.62;52.66;100370.63;107941;1256;73276;-86
2023/07/23 08:54:14;;;;;;;4.40;3.70;;;;;;;24.67;53.12;100370.36;107942;1257;61102;-87
2023/07/23 08:56:41;;;;;;;3.30;3.00;;;;;;;24.84;52.58;100370.35;107961;1256;61376;-87
2023/07/23 08:59:11;;;;;;;3.70;3.30;;;;;;;25.04;52.00;100372.47;108027;1255;72275;-87
2023/07/23 09:01:40;;;;;;;4.60;3.50;;;;;;;25.13;50.89;100375.11;107860;1255;72588;-86
2023/07/23 09:04:15;;;;;;;3.50;3.10;;;;;;;25.35;50.31;100370.77;107922;1256;71712;-87
2023/07/23 09:06:43;;;;;;;4.80;3.30;;;;;;;25.31;49.09;100370.08;107946;1257;61191;-86
2023/07/23 09:09:12;;;;;;;4.20;3.50;;;;;;;25.28;49.24;100373.07;108028;1256;61209;-87
2023/07/23 09:11:39;;;;;;;3.80;3.00;;;;;;;25.32;49.07;100370.24;107903;1259;74489;-87
2023/07/23 09:14:11;;;;;;;3.90;3.20;;;;;;;25.45;49.08;100369.86;107919;1256;72563;-85
2023/07/23 09:16:39;;;;;;;4.90;3.60;;;;;;;25.57;47.90;100373.45;107895;1256;72515;-86
2023/07/23 09:19:08;;;;;;;3.80;3.10;;;;;;;25.62;47.31;100371.98;107956;1257;61246;-88
2023/07/23 09:21:35;;;;;;;3.70;3.30;;;;;;;25.65;47.21;100372.66;107900;1256;61270;-87
2023/07/23 09:24:05;;;;;;;4.60;3.30;;;;;;;25.75;47.64;100372.91;107927;1255;74815;-87
2023/07/23 09:26:36;;;;;;;4.80;3.20;;;;;;;25.78;47.22;100375.08;108000;1259;72863;-85
2023/07/23 09:29:07;;;;;;;5.90;3.40;;;;;;;25.85;46.99;100377.25;107916;1257;71366;-88
2023/07/23 09:31:34;;;;;;;;;;;;;;;25.92;46.41;100377.21;107901;1255;61109;-86
2023/07/23 09:34:02;;;;;;;4.10;3.50;;;;;;;25.98;45.82;100378.41;107931;1256;61175;-88
2023/07/23 09:36:29;;;;;;;4.00;3.20;;;;;;;26.05;45.94;100374.45;107951;1257;74715;-85
2023/07/23 09:39:00;;;;;;;4.20;3.00;;;;;;;26.17;46.25;100375.42;107889;1256;71541;-85
2023/07/23 09:41:31;;;;;;;5.60;3.40;;;;;;;26.33;46.65;100378.25;107943;1260;64338;-89
2023/07/23 09:44:04;;;;;;;4.90;3.60;;;;;;;26.46;45.57;100379.40;107945;1256;59112;-89
2023/07/23 09:46:32;;;;;;;4.50;3.30;;;;;;;26.50;45.21;100372.13;108011;1257;61174;-86
2023/07/23 09:48:59;;;;;;;5.40;3.40;;;;;;;26.54;45.19;100375.72;108029;1257;74602;-87
2023/07/23 09:51:26;;;;;;;6.20;3.40;;;;;;;26.59;44.62;100372.73;108000;1258;64261;-87
2023/07/23 09:53:53;;;;;;;3.70;3.30;;;;;;;26.72;44.35;100366.09;107877;1256;71356;-85
2023/07/23 09:56:22;;;;;;;5.90;3.30;;;;;;;26.75;44.18;100372.77;108003;1257;58997;-86
2023/07/23 09:58:50;;;;;;;4.40;3.40;;;;;;;26.56;43.69;100374.48;108045;1256;59481;-88
2023/07/23 10:01:17;;;;;;;5.60;3.90;;;;;;;26.37;43.88;100377.54;108101;1256;73140;-88
2023/07/23 10:03:44;;;;;;;4.50;3.30;;;;;;;26.20;43.89;100374.86;107951;1256;71719;-87
2023/07/23 10:06:12;;;;;;;4.10;3.40;;;;;;;26.01;44.58;100372.83;107901;1257;72528;-86
2023/07/23 10:08:40;;;;;;;4.30;3.80;;;;;;;25.86;45.10;100379.30;107886;1257;61803;-86
2023/07/23 10:11:11;;;;;;;4.20;3.30;;;;;;;25.84;45.27;100380.20;107901;1256;60308;-88
2023/07/23 10:13:39;;;;;;;4.50;3.40;;;;;;;25.95;45.87;100376.09;107919;1257;74976;-87
2023/07/23 10:16:08;;;;;;;4.40;3.30;;;;;;;26.17;46.13;100376.38;107913;1259;71766;-88
2023/07/23 10:18:37;;;;;;;3.70;3.00;;;;;;;26.40;44.95;100378.29;108006;1259;72645;-87
2023/07/23 10:21:09;;;;;;;4.10;3.00;;;;;;;26.59;43.83;100375.31;107927;1256;61969;-87
2023/07/23 10:23:38;;;;;;;5.30;3.40;;;;;;;26.72;42.23;100376.66;107938;1256;61201;-87
2023/07/23 10:26:47;;;;;;;3.80;3.20;;;;;;;26.80;41.75;100371.69;107979;1257;74331;-87
2023/07/23 10:29:18;;;;;;;4.70;3.20;;;;;;;26.78;41.66;100374.48;107329;1265;73164;-85
2023/07/23 10:31:45;;;;;;;4.40;3.20;;;;;;;26.80;41.85;100373.96;107800;1257;71604;-85
2023/07/23 10:34:27;;;;;;;4.80;3.00;;;;;;;26.86;41.31;100369.41;107877;1257;61220;-85
2023/07/23 10:37:18;;;;;;;5.60;3.20;;;;;;;26.95;41.50;100364.20;107619;1256;221960;-85
2023/07/23 10:39:55;;;;;;;3.90;3.20;;;;;;;27.01;40.83;100363.31;107785;1259;67079;-85
2023/07/23 10:42:35;;;;;;;4.30;2.90;;;;;;;27.02;41.12;100364.52;107917;1257;64436;-85
2023/07/23 10:45:21;;;;;;;4.90;3.30;;;;;;;27.09;40.81;100366.58;107939;1256;63926;-90
2023/07/23 10:47:50;;;;;;;6.40;3.50;;;;;;;26.72;41.80;100367.90;107926;1255;61104;-85
2023/07/23 10:50:20;;;;;;;3.90;3.20;;;;;;;26.61;41.76;100371.73;107820;1256;61055;-85
2023/07/23 10:52:51;;;;;;;3.90;3.10;;;;;;;26.86;41.81;100370.20;107917;1255;72763;-85
2023/07/23 10:55:37;;;;;;;;;;;;;;;26.72;42.07;100373.99;108081;1255;72654;-84
2023/07/23 10:58:10;;;;;;;4.10;3.10;;;;;;;26.66;41.56;100371.11;107974;1259;71162;-87
2023/07/23 11:00:54;;;;;;;4.40;3.20;;;;;;;26.68;41.47;100371.27;107825;1255;61253;-88
2023/07/23 11:03:22;;;;;;;3.70;2.90;;;;;;;26.75;40.20;100369.73;108039;1255;61167;-88
2023/07/23 11:05:52;;;;;;;4.90;3.30;;;;;;;26.81;40.13;100368.02;107956;1259;67154;-88
2023/07/23 11:08:23;;;;;;;4.60;3.00;;;;;;;26.82;40.49;100368.57;107701;1256;62634;-87
2023/07/23 11:11:00;;;;;;;4.00;3.10;;;;;;;26.71;41.11;100373.36;107870;1257;63936;-87
2023/07/23 11:13:30;;;;;;;3.70;2.90;;;;;;;26.58;40.65;100373.34;107880;1256;61214;-87
2023/07/23 11:30:31;;;;;;;4.20;2.30;;;;;;;26.71;40.21;100364.98;105744;1285;613198;-77
2023/07/23 11:33:04;;;;;;;3.60;3.10;;;;;;;27.00;38.62;100358.39;107238;1264;164954;-75
2023/07/23 11:35:32;;;;;;;3.90;3.00;;;;;;;26.99;38.80;100357.73;107264;1265;60287;-76
2023/07/23 11:38:02;;;;;;;3.90;2.90;;;;;;;27.12;38.46;100364.09;107459;1264;72341;-76